• Join FlightAware (Why Join?)
  • Login
  • US Flag 
10:22AM EDT


 

Airport Tracker/Info


-or-


 

Live Flight TrackerFlight Track Log ✈ UAL395 ✈ 20-Aug-2013 ✈ KEWR - KORD

Flight Track Log - Related Links

Times and Time Zones

All times are in EDT time to prevent confusion due to time zone crossing. See the UAL395 flight status page for this flight to view local times or setup timezone preferences in your user account.

Time Position Orientation Groundspeed Altitude Reporting Facility
EDT Latitude Longitude Course Direction KTS MPH feet Rate Location/Type
09:59AM 40.6333 -74.2000 270° West 197 227 2,400  Level New York TRACON
10:00AM 40.6500 -74.2667 288° West 257 296 5,100 3,180 Climbing New York TRACON
10:01AM 40.7167 -74.3167 330° Northwest 264 304 8,800 2,400 Climbing New York TRACON
10:02AM 40.7833 -74.3833 323° Northwest 299 344 10,000 600 Climbing New York TRACON
10:03AM 40.8500 -74.4500 323° Northwest 341 392 10,000 540 Level New York TRACON
10:03AM 40.9275 -74.5117 329° Northwest 355 409 11,100 960 Climbing New York Center
10:04AM 41.1333 -74.6876 270° West  Level FlightAware Approximate
10:04AM 41.0025 -74.5764 327° Northwest 350 403 12,000  Level New York Center
10:05AM 41.0833 -74.6497 326° Northwest 355 409 13,300 1,980 Climbing New York Center
10:06AM 41.1631 -74.7561 315° West 360 414 16,000 2,400 Climbing New York Center
10:07AM 41.2092 -74.8664 299° West 380 437 18,100 2,280 Climbing New York Center
10:08AM 41.2689 -75.0053 300° West 394 453 20,600 2,280 Climbing New York Center
10:09AM 41.3267 -75.1361 300° West 404 465 22,700 1,920 Climbing New York Center
10:10AM 41.3842 -75.2725 299° West 415 478 24,500 1,800 Climbing New York Center
10:11AM 41.4433 -75.4092 300° West 421 484 26,400 1,680 Climbing New York Center
10:12AM 41.4961 -75.5514 296° West 427 491 27,900 1,860 Climbing New York Center
10:13AM 41.5397 -75.7042 291° West 437 503 30,200 2,040 Climbing New York Center
10:14AM 41.5836 -75.8517 292° West 437 503 32,000 1,620 Climbing New York Center
10:15AM 41.6250 -75.9992 291° West 432 497 33,500 1,500 Climbing New York Center
10:16AM 41.6686 -76.1442 292° West 432 497 35,100 1,560 Climbing New York Center
10:17AM 41.7075 -76.2917 289° West 427 491 36,700 1,440 Climbing New York Center
10:18AM 41.7411 -76.4169 290° West 412 474 38,000 600 Climbing New York Center
10:19AM 41.7819 -76.5650 290° West 404 465 38,000  Level New York Center
10:22AM 41.8786 -76.9211 290° West 404 465 38,000  Level Cleveland Center
10:23AM 41.9208 -77.0667 291° West 409 471 38,000  Level Cleveland Center
10:24AM 41.9583 -77.2100 289° West 409 471 38,000  Level Cleveland Center
10:25AM 42.0003 -77.3558 291° West 409 471 38,000  Level Cleveland Center
10:26AM 42.0375 -77.4994 289° West 414 476 38,000  Level Cleveland Center
10:27AM 42.0725 -77.6431 288° West 414 476 38,000  Level Cleveland Center
10:28AM 42.1117 -77.7897 290° West 414 476 38,000  Level Cleveland Center
10:29AM 42.1483 -77.9308 289° West 414 476 38,000  Level Cleveland Center
10:30AM 42.1869 -78.0750 290° West 414 476 38,000  Level Cleveland Center
10:31AM 42.2233 -78.2222 289° West 414 476 38,000  Level Cleveland Center
10:32AM 42.2617 -78.3639 290° West 414 476 38,000  Level Cleveland Center
10:33AM 42.2978 -78.5058 289° West 414 476 38,000  Level Cleveland Center
10:34AM 42.3356 -78.6506 289° West 414 476 38,000  Level Cleveland Center
10:35AM 42.3733 -78.7956 289° West 414 476 38,000  Level Cleveland Center
10:36AM 42.4089 -78.9408 288° West 414 476 38,000  Level Cleveland Center
10:37AM 42.4419 -79.0778 288° West 414 476 38,000  Level Cleveland Center
10:38AM 42.4836 -79.2375 290° West 419 482 38,000  Level Cleveland Center
10:39AM 42.5000 -79.3947 278° West 419 482 38,000  Level Cleveland Center
10:40AM 42.5056 -79.5494 273° West 419 482 38,000  Level Cleveland Center
10:41AM 42.5153 -79.7072 275° West 419 482 38,000  Level Cleveland Center
10:42AM 42.5206 -79.8647 273° West 419 482 38,000  Level Cleveland Center
10:43AM 42.5256 -80.0253 272° West 419 482 38,000  Level Cleveland Center
10:44AM 42.5325 -80.1803 274° West 424 488 38,000  Level Cleveland Center
10:45AM 42.5392 -80.3436 273° West 419 482 38,000  Level Cleveland Center
10:46AM 42.5436 -80.4986 272° West 426 490 38,000  Level Cleveland Center
10:47AM 42.5519 -80.6592 274° West 421 484 38,000  Level Cleveland Center
10:48AM 42.5558 -80.8003 272° West 421 484 38,000  Level Cleveland Center
10:49AM 42.5639 -80.9608 274° West 421 484 38,000  Level Cleveland Center
10:50AM 42.5694 -81.1189 273° West 421 484 38,000  Level Cleveland Center
10:51AM 42.5747 -81.2794 273° West 426 490 38,000  Level Cleveland Center
10:52AM 42.5819 -81.4433 273° West 426 490 38,000  Level Cleveland Center
10:53AM 42.6100 -81.5986 284° West 426 490 38,000  Level Cleveland Center
10:54AM 42.6356 -81.7544 283° West 426 490 38,000  Level Cleveland Center
10:55AM 42.6631 -81.9103 284° West 426 490 38,000  Level Cleveland Center
10:56AM 42.6903 -82.0661 283° West 432 497 38,000  Level Cleveland Center
10:57AM 42.7172 -82.2278 283° West 432 497 38,000  Level Cleveland Center
10:58AM 42.7442 -82.3869 283° West 432 497 38,000  Level Cleveland Center
10:59AM 42.7728 -82.5517 283° West 432 497 38,000  Level Cleveland Center
11:00AM 42.7989 -82.7139 282° West 432 497 38,000  Level Cleveland Center
11:01AM 42.8269 -82.8792 283° West 437 503 38,000  Level Cleveland Center
11:02AM 42.8403 -83.0439 276° West 437 503 38,000  Level Cleveland Center
11:03AM 42.8447 -83.2167 272° West 444 511 38,000  Level Cleveland Center
11:04AM 42.8514 -83.3842 273° West 449 517 38,000 -60 Level Cleveland Center
11:05AM 42.8556 -83.5514 272° West 449 517 37,900 -660 Descending Cleveland Center
11:06AM 42.8614 -83.7244 273° West 449 517 36,700 -1,200 Descending Cleveland Center
11:07AM 42.8650 -83.8919 272° West 454 522 35,600 -1,320 Descending Cleveland Center
11:08AM 42.8706 -84.0594 273° West 449 517 34,100 -1,320 Descending Cleveland Center
11:09AM 42.8736 -84.2267 271° West 449 517 33,000 -1,020 Descending Cleveland Center
11:10AM 42.8806 -84.4242 273° West 445 512 32,000 -480 Descending Chicago Center
11:11AM 42.8828 -84.5936 271° West 449 517 32,000  Level Chicago Center
11:12AM 42.8664 -84.7608 262° West 444 511 32,000  Level Chicago Center
11:13AM 42.8489 -84.9278 262° West 445 512 32,000  Level Chicago Center
11:14AM 42.8306 -85.0953 262° West 447 514 32,000  Level Chicago Center
11:15AM 42.8072 -85.2611 259° West 445 512 32,000 -480 Level Chicago Center
11:16AM 42.7794 -85.4281 257° West 450 518 31,100 -1,020 Descending Chicago Center
11:17AM 42.7478 -85.6339 258° West 460 529 30,000 -1,800 Descending Chicago Center
11:18AM 42.7211 -85.8061 258° West 462 532 27,400 -2,520 Descending Chicago Center
11:19AM 42.6939 -85.9753 258° West 456 525 24,800 -2,520 Descending Chicago Center
11:20AM 42.6681 -86.1372 258° West 439 505 22,300 -2,280 Descending Chicago Center
11:21AM 42.6439 -86.2944 258° West 427 491 20,100 -1,200 Descending Chicago Center
11:22AM 42.6189 -86.4417 257° West 402 463 19,900 -900 Descending Chicago Center
11:23AM 42.5872 -86.5772 252° West 381 438 18,300 -1,680 Descending Chicago Center
11:25AM 42.5614 -86.7217 256° West 364 419 16,500 -1,620 Descending Chicago Center
11:26AM 42.5253 -86.8589 250° West 351 404 15,000 -1,260 Descending Chicago Center
11:27AM 42.4956 -86.9683 250° West 318 366 14,000 -900 Descending Chicago Center
11:28AM 42.4667 -87.0658 248° West 279 321 13,200 -1,260 Descending Chicago Center
11:29AM 42.4425 -87.1519 249° West 249 287 11,500 -1,740 Descending Chicago Center
11:30AM 42.4169 -87.2375 248° West 246 283 9,700 -1,260 Descending Chicago Center
11:31AM 42.3494 -87.2456 185° South 242 278 9,000 -360 Descending Chicago Center
11:32AM 42.2817 -87.2569 187° South 240 276 9,000 -420 Level Chicago Center
11:33AM 42.2242 -87.2986 208° Southwest 236 272 8,200 -1,020 Descending Chicago Center
11:34AM 42.1586 -87.3436 207° Southwest 221 254 7,000 -960 Descending Chicago Center
11:35AM 42.1042 -87.3814 207° Southwest 220 253 6,300 -540 Descending Chicago Center
11:36AM 42.0506 -87.4194 208° Southwest 219 252 6,000 -180 Descending Chicago Center
11:37AM 41.9981 -87.4578 208° Southwest 217 250 6,000 -120 Level Chicago Center
11:38AM 41.9847 -87.5361 257° West 215 247 5,800 -780 Descending Chicago Center
11:39AM 41.9822 -87.6281 268° West 208 239 4,500 -1,260 Descending Chicago Center
11:40AM 41.9850 -87.7058 273° West 208 239 3,300 -1,200 Descending Chicago Center
11:41AM 41.9833 -87.7833 268° West 204 235 2,300 -1,140 Descending Chicago TRACON